METAR Data
IDs: Format: Raw Decoded Include TAF

Data at: 0514 UTC 24 Sep 2018

KLGB 240453Z 32004KT 10SM CLR 19/16 A2985 RMK AO2 SLP107 T01940161
KLGB 240353Z 32006KT 10SM CLR 19/16 A2984 RMK AO2 SLP104 T01940161
KLGB 240253Z 29006KT 10SM CLR 20/16 A2983 RMK AO2 SLP099 T02000161 53005
KLGB 240153Z 30008KT 10SM CLR 22/14 A2981 RMK AO2 SLP094 T02220139
KLGB 240053Z 31006KT 10SM CLR 23/15 A2981 RMK AO2 SLP092 T02330150
KLGB 232353Z 31009KT 10SM CLR 25/15 A2981 RMK AO2 SLP094 T02500150 10267 20228 56019
KLGB 232253Z 20007KT 10SM CLR 26/16 A2982 RMK AO2 SLP096 T02560156
KLGB 232153Z 18008KT 10SM CLR 26/16 A2984 RMK AO2 SLP103 T02560156
KLGB 232053Z 19008KT 10SM CLR 25/16 A2986 RMK AO2 SLP112 T02500161 58021
KLGB 231953Z 19008KT 10SM CLR 24/17 A2989 RMK AO2 SLP120 T02440167
KLGB 231853Z 14004KT 10SM CLR 24/16 A2991 RMK AO2 SLP127 T02440161
KLGB 231753Z 00000KT 10SM CLR 23/17 A2993 RMK AO2 SLP133 T02280167 10228 20183 50007
KLGB 231713Z VRB04KT 10SM SCT016 22/17 A2993 RMK AO2 T02170167
KLGB 231653Z 19007KT 10SM OVC015 22/16 A2994 RMK AO2 SLP136 T02170161
KLGB 231628Z 15006KT 10SM OVC015 21/17 A2993 RMK AO2 T02110167
KLGB 231600Z 07003KT 10SM OVC014 21/17 A2992 RMK AO2 T02060167
KLGB 231553Z VRB03KT 10SM SCT012 21/17 A2992 RMK AO2 SLP131 T02060167
KLGB 231453Z 32004KT 10SM SCT010 19/17 A2991 RMK AO2 SLP126 T01940167 53010
KLGB 231353Z 30003KT 10SM SCT010 19/16 A2989 RMK AO2 SLP120 T01890156
KLGB 231350Z 29003KT 10SM BKN010 19/16 A2989 RMK AO2
KLGB 231253Z 31003KT 10SM CLR 19/16 A2987 RMK AO2 SLP116 T01890156
KLGB 231153Z 30003KT 10SM CLR 19/16 A2987 RMK AO2 SLP115 T01890161 10206 20189 55000
KLGB 231053Z 33004KT 10SM CLR 19/16 A2987 RMK AO2 SLP113 T01890161
KLGB 230953Z 33003KT 10SM CLR 19/16 A2987 RMK AO2 SLP114 T01940156
KLGB 230853Z 34004KT 10SM CLR 20/16 A2987 RMK AO2 SLP115 T02000156 58005
KLGB 230753Z 00000KT 10SM CLR 20/16 A2988 RMK AO2 SLP117 T02000156 402830178
KLGB 230653Z 02005KT 10SM CLR 20/16 A2989 RMK AO2 SLP120 T02000156
KLGB 230553Z 04005KT 10SM CLR 20/16 A2989 RMK AO2 SLP120 T02000156 10244 20200 51010
KLGB 230453Z 01003KT 10SM CLR 20/16 A2988 RMK AO2 SLP117 T02000156
KLGB 230353Z 32004KT 10SM CLR 21/16 A2987 RMK AO2 SLP115 T02060161
KLGB 230253Z 30009KT 10SM CLR 21/16 A2985 RMK AO2 SLP109 T02060161 53003
KLGB 230153Z 31011KT 10SM CLR 22/16 A2985 RMK AO2 SLP106 T02170161
KLGB 230053Z 29010KT 10SM CLR 22/16 A2984 RMK AO2 SLP105 T02220161
KLGB 222353Z 29011KT 10SM CLR 23/15 A2985 RMK AO2 SLP106 T02330150 10283 20233 56016
KLGB 222253Z 30014KT 10SM CLR 26/14 A2985 RMK AO2 SLP108 T02560144
KLGB 222153Z 30012KT 10SM CLR 27/14 A2986 RMK AO2 SLP112 T02670144
KLGB 222053Z 29009KT 10SM CLR 27/15 A2989 RMK AO2 SLP122 T02720150 58022
KLGB 221953Z 27006KT 10SM CLR 28/15 A2992 RMK AO2 SLP130 T02780150
KLGB 221853Z 30006KT 10SM CLR 28/15 A2994 RMK AO2 SLP137 T02830150
KLGB 221753Z 00000KT 10SM CLR 26/17 A2996 RMK AO2 SLP144 T02560167 10256 20178 58000